Clements, Kansas
Current Conditions -  °F | °C
As of 6:53 AM on Friday 28 Nov 2014 (Local Time) from KEMP Reporting Station
Clear Clear  
Wind Chill: 21°   Ceiling: Unl
Heat Index: 31°   Visibility: 10mi
Dew Point: 24°   Wind: 14mph
Humidity: 76%   Direction: 180°S
Pressure: 29.99"   Gusts: NA
Location:  38.2898°N, 96.7469°W
Report Text: KEMP 281253Z AUTO 18012KT 10SM CLR M01/M04 A2999 RMK AO2 SLP168 T10061044
Loading
Personal Weather Stations






























Interactive Weather Map New forecast layout! Learn more

10-Day Weather Forecast

Advertisements
Track Severe Weather on mobile